createdAt,value
2022-12-27T00:00:55.191Z,8.79
2022-12-27T00:01:55.155Z,8.70
2022-12-27T00:02:55.133Z,8.82
2022-12-27T00:03:55.072Z,8.84
2022-12-27T00:04:55.087Z,8.94
2022-12-27T00:05:55.052Z,8.87
2022-12-27T00:06:56.051Z,8.81
2022-12-27T00:07:55.067Z,8.91
2022-12-27T00:08:55.015Z,8.87
2022-12-27T00:09:55.010Z,8.91
2022-12-27T00:10:55.036Z,8.91
2022-12-27T00:11:59.767Z,9.08
2022-12-27T00:12:56.011Z,8.95
2022-12-27T00:13:54.965Z,9.02
2022-12-27T00:14:54.951Z,8.92
2022-12-27T00:15:54.952Z,9.00
2022-12-27T00:16:54.953Z,9.06
2022-12-27T00:17:54.937Z,8.95
2022-12-27T00:18:55.919Z,8.95
2022-12-27T00:19:55.900Z,8.91
2022-12-27T00:20:54.890Z,8.91
2022-12-27T00:21:54.887Z,8.71
2022-12-27T00:22:54.880Z,8.56
2022-12-27T00:23:54.884Z,8.67
2022-12-27T00:24:54.853Z,8.70
2022-12-27T00:25:55.826Z,8.67
2022-12-27T00:26:54.843Z,8.71
2022-12-27T00:27:54.825Z,8.78
2022-12-27T00:28:54.781Z,8.71
2022-12-27T00:29:54.802Z,8.84
2022-12-27T00:30:54.831Z,8.74
2022-12-27T00:31:55.802Z,8.81
2022-12-27T00:32:54.757Z,8.67
2022-12-27T00:33:54.750Z,8.45
2022-12-27T00:34:54.757Z,8.37
2022-12-27T00:35:54.765Z,8.56
2022-12-27T00:36:54.709Z,8.58
2022-12-27T00:37:54.694Z,8.66
2022-12-27T00:38:54.682Z,8.69
2022-12-27T00:39:54.699Z,8.66
2022-12-27T00:40:54.706Z,8.53
2022-12-27T00:41:54.641Z,8.48
2022-12-27T00:42:54.643Z,8.51
2022-12-27T00:43:55.672Z,8.56
2022-12-27T00:44:55.648Z,8.66
2022-12-27T00:45:54.687Z,8.61
2022-12-27T00:46:55.601Z,8.56
2022-12-27T00:47:55.629Z,8.55
2022-12-27T00:48:54.585Z,8.64
2022-12-27T00:49:54.589Z,8.55
2022-12-27T00:50:54.568Z,8.67
2022-12-27T00:51:55.607Z,8.71
2022-12-27T00:52:54.535Z,8.71
2022-12-27T00:53:54.510Z,8.79
2022-12-27T00:54:54.516Z,8.71
2022-12-27T00:55:54.513Z,8.84
2022-12-27T00:56:54.492Z,8.84
2022-12-27T00:57:54.513Z,8.78
2022-12-27T00:58:54.463Z,8.71
2022-12-27T00:59:54.455Z,8.78
2022-12-27T01:00:54.568Z,8.60
2022-12-27T01:01:54.669Z,8.55
2022-12-27T01:02:54.449Z,8.45
2022-12-27T01:03:54.447Z,8.49
2022-12-27T01:04:54.405Z,8.56
2022-12-27T01:05:54.427Z,8.52
2022-12-27T01:06:54.396Z,8.58
2022-12-27T01:07:54.372Z,8.55
2022-12-27T01:08:54.365Z,8.58
2022-12-27T01:09:54.375Z,8.64
2022-12-27T01:10:54.335Z,8.55
2022-12-27T01:11:54.317Z,8.41
2022-12-27T01:12:54.340Z,8.38
2022-12-27T01:13:55.357Z,8.13
2022-12-27T01:14:54.316Z,8.15
2022-12-27T01:15:54.333Z,8.30
2022-12-27T01:16:54.351Z,8.18
2022-12-27T01:17:54.263Z,8.06
2022-12-27T01:18:54.263Z,8.10
2022-12-27T01:19:54.230Z,8.10
2022-12-27T01:20:54.247Z,8.18
2022-12-27T01:21:54.251Z,8.13
2022-12-27T01:22:54.197Z,8.18
2022-12-27T01:23:55.185Z,8.13
2022-12-27T01:24:54.203Z,8.19
2022-12-27T01:25:54.170Z,8.20
2022-12-27T01:26:54.183Z,8.16
2022-12-27T01:27:54.171Z,8.09
2022-12-27T01:28:54.139Z,7.97
2022-12-27T01:29:54.153Z,7.85
2022-12-27T01:30:54.116Z,7.82
2022-12-27T01:31:54.181Z,7.90
2022-12-27T01:32:54.152Z,7.90
2022-12-27T01:33:54.120Z,7.87
2022-12-27T01:34:54.076Z,7.50
2022-12-27T01:35:55.080Z,7.45
2022-12-27T01:36:54.111Z,7.58
2022-12-27T01:37:54.066Z,7.56
2022-12-27T01:38:54.052Z,7.60
2022-12-27T01:39:54.003Z,7.66
2022-12-27T01:40:54.988Z,7.77
2022-12-27T01:41:54.008Z,7.77
2022-12-27T01:42:53.996Z,7.60
2022-12-27T01:43:53.985Z,7.51
2022-12-27T01:44:53.958Z,7.57
2022-12-27T01:45:54.029Z,7.54
2022-12-27T01:46:53.996Z,7.56
2022-12-27T01:47:53.909Z,7.60
2022-12-27T01:48:53.915Z,7.61
2022-12-27T01:49:53.927Z,7.61
2022-12-27T01:50:53.925Z,7.51
2022-12-27T01:51:53.874Z,7.39
2022-12-27T01:52:53.893Z,7.42
2022-12-27T01:53:53.870Z,7.36
2022-12-27T01:54:53.868Z,7.25
2022-12-27T01:55:53.858Z,7.33
2022-12-27T01:56:53.818Z,7.36
2022-12-27T01:57:53.836Z,7.24
2022-12-27T01:58:54.807Z,7.24
2022-12-27T01:59:53.795Z,7.21
2022-12-27T02:00:53.835Z,7.29
2022-12-27T02:01:53.880Z,7.42
2022-12-27T02:02:53.853Z,7.48
2022-12-27T02:03:53.739Z,7.48
2022-12-27T02:04:53.863Z,7.51
2022-12-27T02:05:53.745Z,7.45
2022-12-27T02:06:53.715Z,7.45
2022-12-27T02:07:53.707Z,7.42
2022-12-27T02:08:53.675Z,7.42
2022-12-27T02:09:53.724Z,7.40
2022-12-27T02:10:53.707Z,7.50
2022-12-27T02:11:54.722Z,7.50
2022-12-27T02:12:53.662Z,7.43
2022-12-27T02:13:53.641Z,7.51
2022-12-27T02:14:53.629Z,7.58
2022-12-27T02:15:53.605Z,7.53
2022-12-27T02:16:53.615Z,7.58
2022-12-27T02:17:53.615Z,7.61
2022-12-27T02:18:53.595Z,7.51
2022-12-27T02:19:53.617Z,7.61
2022-12-27T02:20:53.543Z,7.61
2022-12-27T02:21:53.572Z,7.54
2022-12-27T02:22:53.544Z,7.66
2022-12-27T02:23:53.534Z,7.72
2022-12-27T02:24:53.530Z,7.70
2022-12-27T02:25:54.535Z,7.56
2022-12-27T02:26:53.493Z,7.60
2022-12-27T02:27:54.514Z,7.48
2022-12-27T02:28:53.457Z,7.56
2022-12-27T02:29:54.445Z,7.57
2022-12-27T02:30:53.520Z,7.50
2022-12-27T02:31:53.442Z,7.45
2022-12-27T02:32:53.427Z,7.58
2022-12-27T02:33:53.454Z,7.57
2022-12-27T02:34:53.404Z,7.51
2022-12-27T02:35:53.417Z,7.31
2022-12-27T02:36:53.376Z,7.33
2022-12-27T02:37:53.370Z,7.32
2022-12-27T02:38:53.361Z,7.40
2022-12-27T02:39:53.354Z,7.28
2022-12-27T02:40:53.336Z,7.32
2022-12-27T02:41:53.402Z,7.25
2022-12-27T02:42:53.346Z,7.13
2022-12-27T02:43:53.295Z,7.18
2022-12-27T02:44:54.353Z,7.05
2022-12-27T02:45:53.297Z,7.07
2022-12-27T02:46:53.273Z,7.13
2022-12-27T02:47:53.251Z,7.13
2022-12-27T02:48:54.245Z,7.14
2022-12-27T02:49:53.223Z,7.17
2022-12-27T02:50:53.207Z,7.15
2022-12-27T02:51:54.255Z,7.07
2022-12-27T02:52:53.210Z,7.03
2022-12-27T02:53:53.173Z,7.15
2022-12-27T02:54:53.213Z,7.17
2022-12-27T02:55:54.187Z,7.18
2022-12-27T02:56:53.176Z,7.17
2022-12-27T02:57:53.162Z,7.18
2022-12-27T02:58:53.155Z,7.17
2022-12-27T02:59:53.157Z,7.15
2022-12-27T03:00:53.122Z,7.21
2022-12-27T03:01:53.238Z,7.06
2022-12-27T03:02:54.141Z,7.02
2022-12-27T03:03:53.099Z,7.15
2022-12-27T03:04:53.095Z,7.14
2022-12-27T03:05:53.053Z,7.00
2022-12-27T03:06:53.051Z,7.02
2022-12-27T03:07:54.036Z,7.03
2022-12-27T03:08:53.062Z,7.07
2022-12-27T03:09:53.017Z,7.06
2022-12-27T03:10:53.014Z,7.03
2022-12-27T03:11:52.993Z,7.00
2022-12-27T03:12:52.971Z,7.02
2022-12-27T03:13:53.115Z,7.02
2022-12-27T03:14:52.992Z,6.99
2022-12-27T03:15:53.018Z,6.92
2022-12-27T03:16:52.924Z,6.78
2022-12-27T03:17:52.956Z,6.88
2022-12-27T03:18:52.927Z,6.82
2022-12-27T03:19:52.884Z,6.92
2022-12-27T03:20:52.896Z,6.89
2022-12-27T03:21:52.877Z,7.00
2022-12-27T03:22:53.869Z,7.02
2022-12-27T03:23:52.876Z,7.06
2022-12-27T03:24:52.844Z,7.06
2022-12-27T03:25:52.840Z,7.03
2022-12-27T03:26:52.846Z,6.88
2022-12-27T03:27:53.799Z,6.79
2022-12-27T03:28:52.892Z,6.81
2022-12-27T03:29:52.794Z,6.81
2022-12-27T03:30:52.822Z,6.79
2022-12-27T03:31:53.807Z,6.84
2022-12-27T03:32:53.740Z,6.79
2022-12-27T03:33:53.761Z,6.81
2022-12-27T03:34:52.723Z,6.79
2022-12-27T03:35:52.715Z,6.77
2022-12-27T03:36:53.711Z,6.67
2022-12-27T03:37:52.711Z,6.67
2022-12-27T03:38:52.709Z,6.69
2022-12-27T03:39:52.697Z,6.78
2022-12-27T03:40:52.657Z,6.74
2022-12-27T03:41:52.730Z,6.74
2022-12-27T03:42:52.669Z,6.77
2022-12-27T03:43:52.635Z,6.70
2022-12-27T03:44:52.642Z,6.81
2022-12-27T03:45:52.626Z,6.70
2022-12-27T03:46:52.591Z,6.78
2022-12-27T03:47:52.610Z,6.85
2022-12-27T03:48:53.600Z,6.81
2022-12-27T03:49:52.648Z,6.92
2022-12-27T03:50:52.574Z,6.95
2022-12-27T03:51:52.542Z,6.96
2022-12-27T03:52:52.551Z,6.97
2022-12-27T03:53:53.551Z,6.89
2022-12-27T03:54:52.544Z,7.00
2022-12-27T03:55:52.520Z,7.03
2022-12-27T03:56:52.512Z,6.99
2022-12-27T03:57:52.492Z,7.07
2022-12-27T03:58:53.480Z,7.02
2022-12-27T03:59:52.486Z,7.06
2022-12-27T04:00:52.435Z,6.97
2022-12-27T04:01:53.567Z,6.99
2022-12-27T04:02:52.569Z,7.02
2022-12-27T04:03:52.405Z,6.97
2022-12-27T04:04:52.412Z,6.97
2022-12-27T04:05:52.403Z,6.99
2022-12-27T04:06:52.373Z,7.00
2022-12-27T04:07:52.373Z,7.03
2022-12-27T04:08:52.389Z,7.03
2022-12-27T04:09:52.386Z,7.13
2022-12-27T04:10:52.355Z,7.02
2022-12-27T04:11:52.355Z,7.02
2022-12-27T04:12:52.355Z,7.00
2022-12-27T04:13:53.339Z,6.92
2022-12-27T04:14:52.305Z,7.00
2022-12-27T04:15:52.369Z,6.88
2022-12-27T04:16:52.279Z,6.92
2022-12-27T04:17:52.308Z,6.81
2022-12-27T04:18:52.260Z,6.77
2022-12-27T04:19:52.258Z,6.78
2022-12-27T04:20:52.256Z,6.70
2022-12-27T04:21:52.271Z,6.78
2022-12-27T04:22:52.201Z,6.84
2022-12-27T04:23:52.209Z,6.70
2022-12-27T04:24:53.208Z,6.66
2022-12-27T04:25:52.182Z,6.75
2022-12-27T04:26:52.194Z,6.72
2022-12-27T04:27:52.195Z,6.60
2022-12-27T04:28:52.142Z,6.59
2022-12-27T04:29:52.158Z,6.59
2022-12-27T04:30:52.148Z,6.59
2022-12-27T04:31:52.132Z,6.63
2022-12-27T04:32:52.144Z,6.62
2022-12-27T04:33:52.112Z,6.70
2022-12-27T04:34:52.112Z,6.72
2022-12-27T04:35:52.075Z,6.67
2022-12-27T04:36:53.080Z,6.81
2022-12-27T04:37:52.061Z,6.60
2022-12-27T04:38:52.067Z,6.60
2022-12-27T04:39:52.017Z,6.62
2022-12-27T04:40:52.022Z,6.70
2022-12-27T04:41:52.006Z,6.64
2022-12-27T04:42:53.013Z,6.57
2022-12-27T04:43:52.019Z,6.62
2022-12-27T04:44:53.015Z,6.66
2022-12-27T04:45:51.970Z,6.64
2022-12-27T04:46:52.019Z,6.67
2022-12-27T04:47:51.929Z,6.60
2022-12-27T04:48:51.944Z,6.52
2022-12-27T04:49:51.952Z,6.59
2022-12-27T04:50:51.928Z,6.66
2022-12-27T04:51:51.898Z,6.59
2022-12-27T04:52:51.900Z,6.64
2022-12-27T04:53:52.868Z,6.64
2022-12-27T04:54:51.866Z,6.69
2022-12-27T04:55:51.868Z,6.63
2022-12-27T04:56:51.859Z,6.52
2022-12-27T04:57:51.837Z,6.51
2022-12-27T04:58:51.843Z,6.60
2022-12-27T04:59:51.793Z,6.64
2022-12-27T05:00:51.799Z,6.69
2022-12-27T05:01:52.048Z,6.62
2022-12-27T05:02:51.979Z,6.62
2022-12-27T05:03:51.855Z,6.69
2022-12-27T05:04:52.257Z,6.62
2022-12-27T05:05:51.771Z,6.66
2022-12-27T05:06:51.854Z,6.70
2022-12-27T05:07:51.745Z,6.60
2022-12-27T05:08:51.712Z,6.67
2022-12-27T05:09:51.685Z,6.63
2022-12-27T05:10:51.703Z,6.64
2022-12-27T05:11:51.723Z,6.63
2022-12-27T05:12:51.715Z,6.75
2022-12-27T05:13:51.664Z,6.75
2022-12-27T05:14:51.708Z,6.75
2022-12-27T05:15:51.649Z,6.64
2022-12-27T05:16:51.646Z,6.62
2022-12-27T05:17:51.624Z,6.60
2022-12-27T05:18:51.616Z,6.62
2022-12-27T05:19:51.611Z,6.48
2022-12-27T05:20:51.619Z,6.36
2022-12-27T05:21:51.589Z,6.39
2022-12-27T05:22:51.590Z,6.57
2022-12-27T05:23:51.572Z,6.64
2022-12-27T05:24:51.534Z,6.54
2022-12-27T05:25:51.543Z,6.56
2022-12-27T05:26:51.520Z,6.57
2022-12-27T05:27:51.493Z,6.63
2022-12-27T05:28:51.533Z,6.54
2022-12-27T05:29:51.505Z,6.59
2022-12-27T05:30:51.478Z,6.69
2022-12-27T05:31:51.478Z,6.62
2022-12-27T05:32:51.485Z,6.59
2022-12-27T05:33:51.471Z,6.52
2022-12-27T05:34:51.431Z,6.35
2022-12-27T05:35:51.410Z,6.46
2022-12-27T05:36:51.443Z,6.45
2022-12-27T05:37:55.008Z,6.41
2022-12-27T05:38:51.446Z,6.59
2022-12-27T05:39:51.403Z,6.59
2022-12-27T05:40:51.354Z,6.64
2022-12-27T05:41:51.386Z,6.66
2022-12-27T05:42:51.375Z,6.77
2022-12-27T05:43:51.357Z,6.63
2022-12-27T05:44:51.335Z,6.56
2022-12-27T05:45:51.746Z,6.49
2022-12-27T05:46:51.369Z,6.44
2022-12-27T05:47:52.274Z,6.49
2022-12-27T05:48:51.292Z,6.56
2022-12-27T05:49:51.255Z,6.49
2022-12-27T05:50:51.318Z,6.49
2022-12-27T05:51:52.295Z,6.42
2022-12-27T05:52:51.255Z,6.44
2022-12-27T05:53:51.275Z,6.28
2022-12-27T05:54:51.237Z,6.35
2022-12-27T05:55:51.204Z,6.39
2022-12-27T05:56:51.192Z,6.42
2022-12-27T05:57:51.219Z,6.54
2022-12-27T05:58:51.202Z,6.51
2022-12-27T05:59:51.174Z,6.51
2022-12-27T06:00:51.188Z,6.44
2022-12-27T06:01:52.328Z,6.39
2022-12-27T06:02:51.244Z,6.27
2022-12-27T06:03:52.146Z,6.41
2022-12-27T06:04:51.096Z,6.48
2022-12-27T06:05:51.103Z,6.54
2022-12-27T06:06:51.109Z,6.46
2022-12-27T06:07:51.070Z,6.56
2022-12-27T06:08:51.739Z,6.48
2022-12-27T06:09:51.073Z,6.57
2022-12-27T06:10:51.082Z,6.52
2022-12-27T06:11:51.037Z,6.49
2022-12-27T06:12:51.042Z,6.62
2022-12-27T06:13:51.030Z,6.62
2022-12-27T06:14:51.016Z,6.64
2022-12-27T06:15:52.007Z,6.74
2022-12-27T06:16:51.146Z,6.60
2022-12-27T06:17:50.963Z,6.63
2022-12-27T06:18:50.963Z,6.60
2022-12-27T06:19:55.325Z,6.60
2022-12-27T06:20:51.971Z,6.67
2022-12-27T06:21:50.923Z,6.56
2022-12-27T06:22:50.904Z,6.51
2022-12-27T06:23:50.929Z,6.56
2022-12-27T06:24:50.876Z,6.57
2022-12-27T06:25:50.895Z,6.63
2022-12-27T06:26:50.890Z,6.63
2022-12-27T06:27:50.859Z,6.66
2022-12-27T06:28:50.929Z,6.54
2022-12-27T06:29:50.866Z,6.42
2022-12-27T06:30:51.827Z,6.48
2022-12-27T06:31:50.866Z,6.59
2022-12-27T06:32:50.812Z,6.63
2022-12-27T06:33:50.833Z,6.64
2022-12-27T06:34:50.802Z,6.51
2022-12-27T06:35:50.796Z,6.36
2022-12-27T06:36:51.745Z,6.33
2022-12-27T06:37:51.759Z,6.41
2022-12-27T06:38:50.761Z,6.46
2022-12-27T06:39:50.762Z,6.35
2022-12-27T06:40:50.724Z,6.51
2022-12-27T06:41:50.742Z,6.56
2022-12-27T06:42:50.689Z,6.63
2022-12-27T06:43:50.691Z,6.54
2022-12-27T06:44:50.678Z,6.56
2022-12-27T06:45:51.718Z,6.48
2022-12-27T06:46:50.668Z,6.49
2022-12-27T06:47:50.659Z,6.57
2022-12-27T06:48:50.660Z,6.69
2022-12-27T06:49:50.635Z,6.70
2022-12-27T06:50:51.607Z,6.60
2022-12-27T06:51:57.402Z,6.67
2022-12-27T06:52:51.604Z,6.59
2022-12-27T06:53:50.596Z,6.57
2022-12-27T06:54:50.561Z,6.60
2022-12-27T06:55:50.551Z,6.64
2022-12-27T06:56:50.541Z,6.66
2022-12-27T06:57:50.573Z,6.54
2022-12-27T06:58:50.534Z,6.51
2022-12-27T06:59:53.993Z,6.41
2022-12-27T07:00:50.556Z,6.38
2022-12-27T07:01:50.739Z,6.54
2022-12-27T07:02:50.560Z,6.51
2022-12-27T07:03:50.477Z,6.41
2022-12-27T07:04:50.459Z,6.39
2022-12-27T07:05:50.482Z,6.44
2022-12-27T07:06:50.480Z,6.39
2022-12-27T07:07:50.451Z,6.54
2022-12-27T07:08:50.443Z,6.52
2022-12-27T07:09:51.435Z,6.51
2022-12-27T07:10:50.408Z,6.46
2022-12-27T07:11:50.394Z,6.57
2022-12-27T07:12:50.358Z,6.22
2022-12-27T07:13:51.425Z,6.17
2022-12-27T07:14:50.362Z,6.16
2022-12-27T07:15:50.332Z,6.24
2022-12-27T07:16:50.427Z,6.31
2022-12-27T07:17:51.306Z,6.39
2022-12-27T07:18:50.416Z,6.31
2022-12-27T07:19:50.304Z,6.38
2022-12-27T07:20:50.361Z,6.39
2022-12-27T07:21:50.296Z,6.45
2022-12-27T07:22:50.266Z,6.54
2022-12-27T07:23:50.299Z,6.41
2022-12-27T07:24:50.239Z,6.44
2022-12-27T07:25:50.237Z,6.45
2022-12-27T07:26:50.247Z,6.52
2022-12-27T07:27:50.236Z,6.36
2022-12-27T07:28:50.204Z,6.52
2022-12-27T07:29:50.195Z,6.63
2022-12-27T07:30:50.187Z,6.41
2022-12-27T07:31:50.163Z,6.45
2022-12-27T07:32:51.160Z,6.51
2022-12-27T07:33:50.175Z,6.67
2022-12-27T07:34:51.159Z,6.72
2022-12-27T07:35:50.122Z,6.59
2022-12-27T07:36:50.111Z,6.64
2022-12-27T07:37:50.125Z,6.77
2022-12-27T07:38:50.107Z,6.72
2022-12-27T07:39:50.104Z,6.82
2022-12-27T07:40:50.099Z,6.70
2022-12-27T07:41:50.069Z,6.70
2022-12-27T07:42:50.033Z,6.79
2022-12-27T07:43:50.101Z,6.82
2022-12-27T07:44:50.040Z,6.84
2022-12-27T07:45:50.080Z,6.84
2022-12-27T07:46:50.003Z,6.70
2022-12-27T07:47:50.982Z,6.88
2022-12-27T07:48:50.036Z,6.87
2022-12-27T07:49:49.980Z,6.85
2022-12-27T07:50:49.970Z,7.05
2022-12-27T07:51:49.949Z,6.89
2022-12-27T07:52:49.967Z,7.02
2022-12-27T07:53:49.965Z,7.07
2022-12-27T07:54:49.923Z,7.02
2022-12-27T07:55:49.919Z,7.02
2022-12-27T07:56:49.903Z,7.03
2022-12-27T07:57:49.886Z,7.02
2022-12-27T07:58:49.861Z,6.99
2022-12-27T07:59:49.900Z,6.97
2022-12-27T08:00:50.640Z,7.05
2022-12-27T08:01:49.956Z,7.03
2022-12-27T08:02:49.845Z,7.14
2022-12-27T08:03:49.820Z,7.24
2022-12-27T08:04:49.828Z,7.07
2022-12-27T08:05:49.861Z,7.02
2022-12-27T08:06:49.821Z,7.18
2022-12-27T08:07:49.820Z,7.20
2022-12-27T08:08:49.778Z,7.21
2022-12-27T08:09:49.760Z,7.25
2022-12-27T08:10:49.734Z,7.24
2022-12-27T08:11:49.733Z,7.31
2022-12-27T08:12:49.753Z,7.29
2022-12-27T08:13:49.731Z,7.31
2022-12-27T08:14:50.730Z,7.35
2022-12-27T08:15:49.700Z,7.24
2022-12-27T08:16:49.729Z,7.29
2022-12-27T08:17:49.710Z,7.29
2022-12-27T08:18:49.648Z,7.25
2022-12-27T08:19:49.654Z,7.28
2022-12-27T08:20:49.627Z,7.31
2022-12-27T08:21:50.651Z,7.43
2022-12-27T08:22:49.640Z,7.39
2022-12-27T08:23:49.608Z,7.31
2022-12-27T08:24:49.615Z,7.31
2022-12-27T08:25:49.646Z,7.32
2022-12-27T08:26:50.579Z,7.21
2022-12-27T08:27:49.579Z,7.18
2022-12-27T08:28:50.599Z,7.18
2022-12-27T08:29:49.559Z,7.21
2022-12-27T08:30:49.571Z,7.24
2022-12-27T08:31:49.524Z,7.28
2022-12-27T08:32:49.516Z,7.43
2022-12-27T08:33:56.505Z,7.45
2022-12-27T08:34:50.557Z,7.45
2022-12-27T08:35:54.004Z,7.43
2022-12-27T08:36:57.719Z,7.43
2022-12-27T08:37:50.453Z,7.43
2022-12-27T08:38:49.440Z,7.50
2022-12-27T08:39:49.449Z,7.48
2022-12-27T08:40:49.412Z,7.45
2022-12-27T08:41:49.400Z,7.50
2022-12-27T08:42:49.420Z,7.56
2022-12-27T08:43:50.425Z,7.50
2022-12-27T08:44:49.396Z,7.54
2022-12-27T08:45:49.462Z,7.75
2022-12-27T08:46:49.348Z,7.61
2022-12-27T08:47:49.348Z,7.57
2022-12-27T08:48:57.201Z,7.82
2022-12-27T08:49:49.329Z,7.73
2022-12-27T08:50:49.317Z,7.77
2022-12-27T08:51:49.320Z,7.67
2022-12-27T08:52:50.354Z,7.70
2022-12-27T08:53:49.277Z,7.72
2022-12-27T08:54:49.262Z,7.61
2022-12-27T08:55:49.262Z,7.70
2022-12-27T08:56:49.249Z,7.69
2022-12-27T08:57:49.268Z,7.72
2022-12-27T08:58:49.277Z,7.76
2022-12-27T08:59:49.208Z,7.61
2022-12-27T09:00:49.203Z,7.63
2022-12-27T09:01:50.269Z,7.58
2022-12-27T09:02:50.216Z,7.70
2022-12-27T09:03:49.195Z,7.60
2022-12-27T09:04:50.163Z,7.58
2022-12-27T09:05:49.141Z,7.70
2022-12-27T09:06:49.171Z,7.79
2022-12-27T09:07:49.168Z,7.77
2022-12-27T09:08:50.127Z,7.70
2022-12-27T09:09:49.149Z,7.90
2022-12-27T09:10:50.102Z,7.88
2022-12-27T09:11:49.083Z,7.94
2022-12-27T09:12:49.089Z,8.08
2022-12-27T09:13:50.083Z,8.01
2022-12-27T09:14:50.088Z,8.09
2022-12-27T09:15:49.079Z,8.00
2022-12-27T09:16:49.053Z,8.13
2022-12-27T09:17:50.008Z,8.12
2022-12-27T09:18:49.033Z,8.08
2022-12-27T09:19:49.039Z,8.06
2022-12-27T09:20:49.024Z,8.10
2022-12-27T09:21:48.975Z,8.01
2022-12-27T09:22:49.994Z,8.15
2022-12-27T09:23:49.949Z,8.09
2022-12-27T09:24:49.947Z,8.09
2022-12-27T09:25:49.013Z,8.10
2022-12-27T09:26:48.940Z,8.10
2022-12-27T09:27:49.935Z,8.08
2022-12-27T09:28:48.917Z,8.13
2022-12-27T09:29:48.905Z,8.08
2022-12-27T09:30:48.932Z,8.12
2022-12-27T09:31:48.880Z,8.37
2022-12-27T09:32:49.853Z,8.23
2022-12-27T09:33:49.855Z,8.31
2022-12-27T09:34:48.840Z,8.34
2022-12-27T09:35:48.820Z,8.44
2022-12-27T09:36:48.828Z,8.36
2022-12-27T09:37:48.811Z,8.49
2022-12-27T09:38:48.808Z,8.55
2022-12-27T09:39:48.786Z,8.52
2022-12-27T09:40:48.767Z,8.48
2022-12-27T09:43:00.802Z,8.66
2022-12-27T09:43:49.756Z,8.71
2022-12-27T09:44:48.764Z,8.73
2022-12-27T09:45:48.709Z,8.76
2022-12-27T09:46:49.696Z,8.67
2022-12-27T09:47:48.745Z,8.70
2022-12-27T09:48:49.690Z,8.81
2022-12-27T09:49:48.675Z,8.63
2022-12-27T09:50:49.668Z,8.74
2022-12-27T09:51:48.638Z,8.76
2022-12-27T09:52:48.663Z,8.71
2022-12-27T09:53:48.610Z,8.74
2022-12-27T09:54:48.633Z,8.70
2022-12-27T09:55:48.622Z,8.79
2022-12-27T09:57:19.399Z,8.84
2022-12-27T09:57:49.604Z,8.82
2022-12-27T09:58:49.564Z,8.81
2022-12-27T09:59:48.562Z,8.76
2022-12-27T10:00:48.577Z,8.70
2022-12-27T10:01:48.598Z,8.82
2022-12-27T10:02:48.555Z,8.84
2022-12-27T10:03:48.543Z,8.84
2022-12-27T10:05:19.727Z,8.87
2022-12-27T10:05:54.639Z,8.92
2022-12-27T10:06:49.473Z,8.79
2022-12-27T10:07:49.459Z,8.76
2022-12-27T10:08:48.526Z,8.82
2022-12-27T10:09:48.434Z,8.85
2022-12-27T10:10:48.429Z,8.69
2022-12-27T10:11:49.447Z,8.87
2022-12-27T10:12:48.430Z,8.91
2022-12-27T10:13:48.426Z,8.95
2022-12-27T10:14:48.403Z,8.92
2022-12-27T10:15:49.106Z,8.70
2022-12-27T10:16:49.389Z,8.88
2022-12-27T10:17:53.086Z,8.81
2022-12-27T10:18:49.325Z,8.95
2022-12-27T10:19:48.335Z,9.04
2022-12-27T10:20:48.320Z,9.00
2022-12-27T10:21:48.331Z,8.94
2022-12-27T10:22:48.297Z,8.73
2022-12-27T10:23:48.279Z,8.55
2022-12-27T10:24:48.287Z,8.58
2022-12-27T10:25:48.289Z,8.61
2022-12-27T10:26:48.264Z,8.56
2022-12-27T10:27:48.255Z,8.60
2022-12-27T10:28:49.619Z,8.53
2022-12-27T10:29:49.205Z,8.41
2022-12-27T10:30:48.208Z,8.60
2022-12-27T10:31:48.197Z,8.45
2022-12-27T10:32:49.179Z,8.52
2022-12-27T10:33:48.193Z,8.64
2022-12-27T10:34:48.174Z,8.70
2022-12-27T10:35:48.190Z,8.64
2022-12-27T10:36:48.188Z,8.55
2022-12-27T10:37:48.121Z,8.55
2022-12-27T10:38:49.153Z,8.73
2022-12-27T10:39:48.099Z,8.74
2022-12-27T10:40:49.120Z,8.76
2022-12-27T10:41:48.107Z,8.76
2022-12-27T10:42:48.061Z,8.73
2022-12-27T10:43:48.074Z,8.69
2022-12-27T10:44:48.090Z,8.76
2022-12-27T10:45:48.041Z,8.70
2022-12-27T10:46:48.080Z,8.74
2022-12-27T10:47:48.051Z,8.69
2022-12-27T10:49:19.649Z,8.74
2022-12-27T10:49:49.001Z,8.46
2022-12-27T10:50:47.997Z,8.45
2022-12-27T10:51:48.993Z,8.46
2022-12-27T10:52:51.490Z,8.46
2022-12-27T10:53:48.959Z,8.45
2022-12-27T10:54:48.961Z,8.41
2022-12-27T10:55:47.938Z,8.42
2022-12-27T10:56:47.958Z,8.58
2022-12-27T10:57:47.911Z,8.44
2022-12-27T10:58:52.891Z,8.60
2022-12-27T10:59:48.903Z,8.71
2022-12-27T11:00:47.916Z,8.79
2022-12-27T11:01:48.040Z,8.52
2022-12-27T11:02:47.953Z,8.63
2022-12-27T11:03:47.861Z,8.69
2022-12-27T11:04:47.846Z,8.88
2022-12-27T11:05:47.840Z,8.79
2022-12-27T11:06:47.817Z,8.87
2022-12-27T11:07:48.844Z,8.94
2022-12-27T11:08:47.790Z,8.92
2022-12-27T11:09:51.226Z,8.99
2022-12-27T11:10:47.767Z,8.87
2022-12-27T11:11:47.743Z,8.89
2022-12-27T11:12:47.781Z,8.92
2022-12-27T11:13:47.763Z,8.87
2022-12-27T11:14:47.713Z,8.84
2022-12-27T11:15:47.795Z,8.89
2022-12-27T11:16:47.787Z,8.92
2022-12-27T11:17:47.727Z,9.10
2022-12-27T11:18:47.666Z,9.08
2022-12-27T11:19:47.725Z,9.06
2022-12-27T11:20:47.658Z,9.02
2022-12-27T11:21:47.671Z,9.16
2022-12-27T11:22:47.649Z,9.25
2022-12-27T11:23:47.731Z,9.25
2022-12-27T11:24:47.599Z,9.06
2022-12-27T11:25:47.613Z,9.10
2022-12-27T11:26:53.517Z,9.16
2022-12-27T11:27:48.573Z,9.08
2022-12-27T11:28:47.595Z,9.14
2022-12-27T11:29:47.559Z,9.25
2022-12-27T11:30:48.549Z,9.11
2022-12-27T11:31:47.586Z,9.19
2022-12-27T11:32:47.538Z,9.23
2022-12-27T11:33:47.671Z,9.16
2022-12-27T11:34:47.488Z,9.11
2022-12-27T11:35:47.488Z,9.29
2022-12-27T11:36:48.497Z,9.25
2022-12-27T11:37:47.466Z,9.36
2022-12-27T11:38:47.459Z,9.29
2022-12-27T11:39:48.456Z,9.21
2022-12-27T11:40:47.418Z,9.25
2022-12-27T11:41:47.485Z,9.25
2022-12-27T11:42:48.420Z,9.10
2022-12-27T11:43:47.411Z,9.02
2022-12-27T11:44:47.410Z,9.11
2022-12-27T11:45:47.387Z,9.19
2022-12-27T11:46:47.409Z,9.28
2022-12-27T11:47:47.371Z,9.29
2022-12-27T11:48:47.365Z,9.26
2022-12-27T11:49:47.338Z,9.28
2022-12-27T11:50:48.330Z,9.37
2022-12-27T11:51:47.299Z,9.25
2022-12-27T11:52:48.332Z,9.36
2022-12-27T11:53:49.786Z,9.29
2022-12-27T11:54:48.303Z,9.29
2022-12-27T11:55:47.267Z,9.47
2022-12-27T11:56:47.271Z,9.54
2022-12-27T11:57:47.284Z,9.56
2022-12-27T11:58:48.237Z,9.59
2022-12-27T11:59:48.209Z,9.62
2022-12-27T12:00:47.249Z,9.61
2022-12-27T12:01:47.382Z,9.62
2022-12-27T12:02:47.359Z,9.47
2022-12-27T12:03:47.197Z,9.50
2022-12-27T12:04:47.166Z,9.51
2022-12-27T12:05:47.156Z,9.48
2022-12-27T12:06:47.178Z,9.41
2022-12-27T12:07:48.121Z,9.59
2022-12-27T12:08:47.150Z,9.64
2022-12-27T12:09:48.125Z,9.61
2022-12-27T12:10:47.098Z,9.66
2022-12-27T12:11:54.499Z,9.54
2022-12-27T12:12:48.078Z,9.48
2022-12-27T12:13:47.115Z,9.40
2022-12-27T12:14:47.069Z,9.40
2022-12-27T12:15:47.039Z,9.46
2022-12-27T12:16:47.104Z,9.44
2022-12-27T12:17:47.020Z,9.59
2022-12-27T12:18:47.015Z,9.83
2022-12-27T12:19:47.007Z,9.73
2022-12-27T12:20:50.981Z,9.80
2022-12-27T12:21:46.979Z,9.77
2022-12-27T12:22:46.973Z,9.79
2022-12-27T12:23:46.996Z,9.82
2022-12-27T12:24:46.984Z,9.69
2022-12-27T12:25:46.945Z,9.72
2022-12-27T12:26:49.479Z,9.66
2022-12-27T12:27:47.921Z,9.76
2022-12-27T12:28:58.159Z,9.58
2022-12-27T12:29:47.943Z,9.59
2022-12-27T12:30:47.908Z,9.69
2022-12-27T12:31:46.967Z,9.68
2022-12-27T12:32:46.871Z,9.76
2022-12-27T12:33:46.873Z,9.84
2022-12-27T12:34:46.877Z,9.79
2022-12-27T12:35:47.825Z,9.87
2022-12-27T12:36:52.288Z,10.01
2022-12-27T12:37:47.809Z,9.89
2022-12-27T12:38:47.816Z,9.82
2022-12-27T12:39:47.800Z,10.05
2022-12-27T12:40:46.777Z,9.79
2022-12-27T12:41:46.787Z,9.80
2022-12-27T12:42:47.768Z,10.01
2022-12-27T12:43:46.755Z,9.99
2022-12-27T12:44:46.728Z,9.98
2022-12-27T12:45:46.792Z,10.05
2022-12-27T12:46:46.706Z,10.04
2022-12-27T12:47:46.711Z,10.02
2022-12-27T12:48:46.716Z,10.02
2022-12-27T12:49:46.709Z,10.04
2022-12-27T12:50:46.702Z,10.01
2022-12-27T12:51:46.669Z,9.98
2022-12-27T12:52:46.664Z,10.12
2022-12-27T12:53:47.648Z,10.15
2022-12-27T12:54:46.624Z,10.04
2022-12-27T12:55:46.622Z,10.05
2022-12-27T12:56:46.604Z,10.20
2022-12-27T12:57:46.607Z,10.12
2022-12-27T12:58:46.594Z,9.95
2022-12-27T12:59:46.583Z,9.94
2022-12-27T13:00:46.717Z,10.10
2022-12-27T13:01:50.978Z,10.10
2022-12-27T13:02:46.702Z,10.28
2022-12-27T13:03:46.553Z,10.23
2022-12-27T13:04:46.547Z,10.31
2022-12-27T13:05:46.547Z,10.23
2022-12-27T13:06:46.536Z,10.22
2022-12-27T13:07:46.559Z,10.48
2022-12-27T13:08:47.459Z,10.37
2022-12-27T13:09:46.458Z,10.30
2022-12-27T13:10:47.453Z,10.26
2022-12-27T13:11:47.462Z,10.42
2022-12-27T13:12:52.402Z,10.49
2022-12-27T13:13:47.418Z,10.53
2022-12-27T13:14:46.401Z,10.76
2022-12-27T13:15:46.395Z,10.68
2022-12-27T13:16:46.383Z,10.74
2022-12-27T13:17:46.361Z,10.67
2022-12-27T13:18:46.361Z,10.69